createdAt,value
2022-12-06T00:01:13.175Z,7.10
2022-12-06T00:03:42.551Z,6.80
2022-12-06T00:06:18.836Z,7.48
2022-12-06T00:08:47.681Z,7.25
2022-12-06T00:11:23.363Z,6.72
2022-12-06T00:13:55.940Z,6.78
2022-12-06T00:16:24.123Z,6.23
2022-12-06T00:18:52.081Z,6.62
2022-12-06T00:21:28.288Z,6.55
2022-12-06T00:24:04.257Z,6.29
2022-12-06T00:26:32.050Z,6.13
2022-12-06T00:29:03.262Z,6.20
2022-12-06T00:31:31.429Z,6.15
2022-12-06T00:33:58.817Z,6.18
2022-12-06T00:36:29.114Z,6.42
2022-12-06T00:38:59.649Z,6.13
2022-12-06T00:41:27.710Z,6.39
2022-12-06T00:43:55.185Z,6.22
2022-12-06T00:46:28.117Z,6.46
2022-12-06T00:48:57.104Z,6.12
2022-12-06T00:51:25.291Z,6.01
2022-12-06T00:53:52.775Z,6.28
2022-12-06T00:56:20.447Z,5.92
2022-12-06T00:58:47.761Z,6.05
2022-12-06T01:01:17.377Z,5.69
2022-12-06T01:03:45.315Z,5.78
2022-12-06T01:06:15.557Z,5.91
2022-12-06T01:08:43.365Z,5.96
2022-12-06T01:11:11.938Z,6.34
2022-12-06T01:13:39.274Z,6.32
2022-12-06T01:16:08.271Z,6.35
2022-12-06T01:18:36.097Z,6.44
2022-12-06T01:21:22.324Z,6.26
2022-12-06T01:23:50.115Z,6.00
2022-12-06T01:26:29.845Z,5.71
2022-12-06T01:28:58.559Z,5.81
2022-12-06T01:31:26.437Z,5.76
2022-12-06T01:33:54.590Z,5.74
2022-12-06T01:36:23.933Z,5.72
2022-12-06T01:38:52.602Z,5.91
2022-12-06T01:41:21.395Z,5.85
2022-12-06T01:43:49.456Z,5.99
2022-12-06T01:46:30.335Z,5.80
2022-12-06T01:49:19.271Z,5.93
2022-12-06T01:51:50.888Z,5.52
2022-12-06T01:54:19.900Z,5.93
2022-12-06T01:56:48.726Z,6.64
2022-12-06T01:59:16.243Z,6.59
2022-12-06T02:01:44.248Z,6.34
2022-12-06T02:04:11.955Z,6.48
2022-12-06T02:06:40.103Z,6.74
2022-12-06T02:09:09.678Z,6.74
2022-12-06T02:11:37.567Z,6.97
2022-12-06T02:14:08.715Z,6.65
2022-12-06T02:16:50.959Z,6.55
2022-12-06T02:19:51.319Z,6.61
2022-12-06T02:22:23.566Z,6.81
2022-12-06T02:25:14.066Z,7.07
2022-12-06T02:28:02.895Z,6.72
2022-12-06T02:30:36.450Z,6.90
2022-12-06T02:33:07.190Z,7.66
2022-12-06T02:35:39.153Z,7.54
2022-12-06T02:38:20.622Z,7.85
2022-12-06T02:40:57.754Z,7.55
2022-12-06T02:43:29.187Z,7.25
2022-12-06T02:45:59.495Z,7.13
2022-12-06T02:48:27.014Z,6.67
2022-12-06T02:51:00.409Z,6.55
2022-12-06T02:53:29.478Z,6.37
2022-12-06T02:55:57.279Z,6.34
2022-12-06T02:58:24.583Z,6.30
2022-12-06T03:00:59.906Z,6.47
2022-12-06T03:03:49.343Z,6.48
2022-12-06T03:06:55.919Z,6.43
2022-12-06T03:09:36.473Z,5.53
2022-12-06T03:12:15.772Z,5.71
2022-12-06T03:15:01.275Z,5.56
2022-12-06T03:17:38.708Z,5.87
2022-12-06T03:20:14.911Z,5.57
2022-12-06T03:22:46.706Z,5.81
2022-12-06T03:25:14.140Z,5.79
2022-12-06T03:27:42.782Z,5.89
2022-12-06T03:30:12.125Z,5.67
2022-12-06T03:32:42.068Z,5.63
2022-12-06T03:35:12.494Z,5.74
2022-12-06T03:37:41.323Z,5.75
2022-12-06T03:40:14.031Z,5.70
2022-12-06T03:42:41.676Z,5.72
2022-12-06T03:45:11.058Z,5.66
2022-12-06T03:47:52.621Z,6.03
2022-12-06T03:50:30.120Z,5.61
2022-12-06T03:52:57.699Z,5.56
2022-12-06T03:55:25.288Z,5.28
2022-12-06T03:57:52.713Z,4.88
2022-12-06T04:00:20.313Z,5.01
2022-12-06T04:02:47.949Z,5.37
2022-12-06T04:05:15.316Z,5.12
2022-12-06T04:07:42.701Z,5.19
2022-12-06T04:10:10.564Z,5.03
2022-12-06T04:12:56.299Z,5.49
2022-12-06T04:15:24.112Z,5.87
2022-12-06T04:18:09.976Z,5.92
2022-12-06T04:21:02.226Z,6.41
2022-12-06T04:23:30.912Z,6.49
2022-12-06T04:25:58.635Z,6.35
2022-12-06T04:28:44.714Z,6.45
2022-12-06T04:31:30.720Z,6.78
2022-12-06T04:34:16.632Z,6.69
2022-12-06T04:37:03.215Z,6.96
2022-12-06T04:39:30.543Z,7.15
2022-12-06T04:42:16.805Z,7.06
2022-12-06T04:44:44.123Z,6.75
2022-12-06T04:47:12.035Z,6.70
2022-12-06T04:49:39.359Z,6.55
2022-12-06T04:52:08.767Z,6.90
2022-12-06T04:54:36.717Z,6.50
2022-12-06T04:57:04.299Z,6.94
2022-12-06T04:59:31.607Z,6.84
2022-12-06T05:01:59.213Z,7.11
2022-12-06T05:04:26.687Z,6.95
2022-12-06T05:06:54.062Z,6.85
2022-12-06T05:09:21.864Z,6.93
2022-12-06T05:11:49.191Z,7.23
2022-12-06T05:14:16.877Z,6.99
2022-12-06T05:16:44.605Z,6.58
2022-12-06T05:19:13.327Z,6.72
2022-12-06T05:21:41.126Z,7.04
2022-12-06T05:24:08.886Z,7.39
2022-12-06T05:26:36.477Z,7.48
2022-12-06T05:29:04.182Z,6.94
2022-12-06T05:31:31.798Z,6.82
2022-12-06T05:33:59.160Z,6.96
2022-12-06T05:36:27.376Z,7.24
2022-12-06T05:38:56.312Z,7.32
2022-12-06T05:41:24.302Z,6.99
2022-12-06T05:43:51.702Z,7.15
2022-12-06T05:46:19.579Z,6.95
2022-12-06T05:48:46.945Z,7.31
2022-12-06T05:51:14.329Z,7.77
2022-12-06T05:53:41.981Z,7.39
2022-12-06T05:56:11.828Z,7.40
2022-12-06T05:58:39.896Z,7.48
2022-12-06T06:01:08.165Z,7.27
2022-12-06T06:03:35.901Z,7.07
2022-12-06T06:06:03.858Z,7.40
2022-12-06T06:08:31.667Z,7.52
2022-12-06T06:11:00.089Z,7.67
2022-12-06T06:13:27.698Z,7.64
2022-12-06T06:15:55.065Z,6.85
2022-12-06T06:18:23.064Z,6.48
2022-12-06T06:20:59.731Z,6.80
2022-12-06T06:23:28.376Z,7.00
2022-12-06T06:25:56.025Z,7.48
2022-12-06T06:28:23.513Z,7.73
2022-12-06T06:30:51.090Z,7.37
2022-12-06T06:33:18.464Z,6.78
2022-12-06T06:35:45.775Z,6.74
2022-12-06T06:38:13.327Z,7.14
2022-12-06T06:40:40.715Z,7.17
2022-12-06T06:43:20.542Z,7.28
2022-12-06T06:45:53.693Z,7.19
2022-12-06T06:48:21.645Z,6.98
2022-12-06T06:50:53.908Z,7.27
2022-12-06T06:53:25.096Z,6.82
2022-12-06T06:55:54.019Z,7.51
2022-12-06T06:58:21.546Z,7.25
2022-12-06T07:01:00.149Z,6.61
2022-12-06T07:03:28.610Z,6.50
2022-12-06T07:06:01.843Z,6.84
2022-12-06T07:08:31.374Z,6.44
2022-12-06T07:10:59.154Z,6.61
2022-12-06T07:13:28.406Z,7.18
2022-12-06T07:15:56.905Z,7.13
2022-12-06T07:18:24.882Z,7.15
2022-12-06T07:21:00.464Z,7.07
2022-12-06T07:23:28.080Z,6.94
2022-12-06T07:26:06.710Z,7.29
2022-12-06T07:28:38.618Z,6.58
2022-12-06T07:31:14.275Z,6.80
2022-12-06T07:33:45.389Z,7.06
2022-12-06T07:36:14.310Z,6.46
2022-12-06T07:38:43.012Z,6.82
2022-12-06T07:41:31.468Z,7.53
2022-12-06T07:44:19.471Z,7.70
2022-12-06T07:46:47.191Z,7.35
2022-12-06T07:49:15.877Z,7.67
2022-12-06T07:51:44.285Z,7.73
2022-12-06T07:54:12.113Z,7.46
2022-12-06T07:56:40.053Z,7.00
2022-12-06T07:59:07.535Z,7.06
2022-12-06T08:01:34.923Z,7.00
2022-12-06T08:04:03.686Z,7.01
2022-12-06T08:06:32.211Z,6.96
2022-12-06T08:08:59.894Z,7.10
2022-12-06T08:11:28.638Z,7.36
2022-12-06T08:13:56.117Z,7.32
2022-12-06T08:16:23.719Z,7.15
2022-12-06T08:18:52.660Z,6.95
2022-12-06T08:21:20.008Z,6.65
2022-12-06T08:23:47.323Z,6.35
2022-12-06T08:26:16.404Z,6.93
2022-12-06T08:28:43.693Z,7.15
2022-12-06T08:31:13.595Z,7.23
2022-12-06T08:33:41.259Z,7.96
2022-12-06T08:36:13.329Z,8.04
2022-12-06T08:38:41.161Z,8.04
2022-12-06T08:41:29.467Z,8.35
2022-12-06T08:43:58.769Z,7.72
2022-12-06T08:46:27.150Z,8.36
2022-12-06T08:48:54.934Z,8.42
2022-12-06T08:51:22.533Z,8.59
2022-12-06T08:53:49.912Z,7.81
2022-12-06T08:56:17.211Z,7.25
2022-12-06T08:58:44.855Z,7.58
2022-12-06T09:01:17.623Z,7.98
2022-12-06T09:03:45.242Z,7.79
2022-12-06T09:06:12.787Z,8.01
2022-12-06T09:08:40.588Z,7.37
2022-12-06T09:11:09.278Z,7.47
2022-12-06T09:13:37.929Z,7.74
2022-12-06T09:16:10.754Z,8.13
2022-12-06T09:18:38.531Z,8.09
2022-12-06T09:21:07.441Z,8.46
2022-12-06T09:23:35.805Z,8.69
2022-12-06T09:26:04.771Z,9.20
2022-12-06T09:28:34.566Z,9.59
2022-12-06T09:31:03.020Z,9.27
2022-12-06T09:33:30.768Z,9.49
2022-12-06T09:35:59.958Z,9.06
2022-12-06T09:38:28.344Z,8.80
2022-12-06T09:41:37.470Z,8.92
2022-12-06T09:44:35.797Z,9.01
2022-12-06T09:47:37.478Z,9.19
2022-12-06T09:50:08.938Z,8.37
2022-12-06T09:52:55.523Z,8.61
2022-12-06T09:55:25.877Z,7.78
2022-12-06T09:58:24.188Z,7.90
2022-12-06T10:01:16.541Z,7.29
2022-12-06T10:03:56.709Z,7.79
2022-12-06T10:06:25.538Z,7.86
2022-12-06T10:09:11.505Z,7.96
2022-12-06T10:12:07.032Z,8.33
2022-12-06T10:15:10.077Z,7.49
2022-12-06T10:18:12.805Z,7.08
2022-12-06T10:20:45.847Z,7.51
2022-12-06T10:23:33.239Z,7.56
2022-12-06T10:26:08.961Z,7.34
2022-12-06T10:29:02.182Z,7.96
2022-12-06T10:31:38.846Z,8.56
2022-12-06T10:34:15.020Z,9.03
2022-12-06T10:36:51.844Z,8.80
2022-12-06T10:39:50.283Z,7.75
2022-12-06T10:42:34.227Z,8.37
2022-12-06T10:45:38.496Z,8.96
2022-12-06T10:48:16.108Z,8.55
2022-12-06T10:50:45.801Z,9.16
2022-12-06T10:53:17.290Z,8.45
2022-12-06T10:55:50.344Z,8.88
2022-12-06T10:58:33.117Z,8.74
2022-12-06T11:01:03.461Z,9.26
2022-12-06T11:03:40.075Z,9.00
2022-12-06T11:06:10.472Z,9.27
2022-12-06T11:08:42.525Z,9.21
2022-12-06T11:11:18.124Z,8.73
2022-12-06T11:13:53.746Z,9.34
2022-12-06T11:16:23.714Z,8.58
2022-12-06T11:18:51.539Z,7.84
2022-12-06T11:21:39.582Z,8.19
2022-12-06T11:24:23.157Z,7.79
2022-12-06T11:27:09.464Z,7.37
2022-12-06T11:29:37.408Z,7.21
2022-12-06T11:32:07.843Z,8.06
2022-12-06T11:34:50.885Z,7.18
2022-12-06T11:37:21.237Z,7.42
2022-12-06T11:39:51.739Z,7.77
2022-12-06T11:42:24.206Z,7.47
2022-12-06T11:44:59.248Z,7.28
2022-12-06T11:47:26.934Z,8.19
2022-12-06T11:49:55.521Z,8.82
2022-12-06T11:52:44.204Z,8.44
2022-12-06T11:55:21.547Z,8.68
2022-12-06T11:57:54.840Z,8.93
2022-12-06T12:00:24.907Z,8.75
2022-12-06T12:02:55.444Z,8.90
2022-12-06T12:05:28.683Z,9.26
2022-12-06T12:08:02.404Z,8.79
2022-12-06T12:10:43.977Z,8.99
2022-12-06T12:13:30.396Z,9.83
2022-12-06T12:16:02.975Z,9.74
2022-12-06T12:18:33.734Z,8.10
2022-12-06T12:21:01.816Z,9.08
2022-12-06T12:23:32.948Z,9.44
2022-12-06T12:26:17.107Z,8.87
2022-12-06T12:28:46.853Z,9.63
2022-12-06T12:31:20.827Z,8.74
2022-12-06T12:33:48.928Z,8.45
2022-12-06T12:36:27.414Z,8.38
2022-12-06T12:39:01.168Z,9.00
2022-12-06T12:41:38.566Z,8.20
2022-12-06T12:44:36.368Z,8.33
2022-12-06T12:47:17.996Z,8.26
2022-12-06T12:49:59.681Z,8.88
2022-12-06T12:52:36.077Z,9.06
2022-12-06T12:55:30.780Z,8.72
2022-12-06T12:58:00.097Z,9.03
2022-12-06T13:00:39.035Z,8.71
2022-12-06T13:03:34.954Z,8.45
2022-12-06T13:06:01.507Z,8.44
2022-12-06T13:08:33.425Z,8.37
2022-12-06T13:11:03.117Z,8.13
2022-12-06T13:13:40.728Z,7.37
2022-12-06T13:16:13.515Z,7.99
2022-12-06T13:18:50.350Z,7.58
2022-12-06T13:21:21.744Z,8.43
2022-12-06T13:23:53.085Z,8.23
2022-12-06T13:26:26.888Z,8.19
2022-12-06T13:28:57.706Z,8.07
2022-12-06T13:31:28.341Z,7.92
2022-12-06T13:34:00.960Z,8.04
2022-12-06T13:36:33.252Z,8.34
2022-12-06T13:39:32.728Z,7.96
2022-12-06T13:42:20.252Z,8.04
2022-12-06T13:44:47.840Z,7.58
2022-12-06T13:47:27.121Z,7.74
2022-12-06T13:49:59.117Z,7.34
2022-12-06T13:52:45.357Z,7.50
2022-12-06T13:55:25.532Z,7.09
2022-12-06T13:57:56.088Z,6.47
2022-12-06T14:00:29.626Z,6.57
2022-12-06T14:03:21.616Z,7.01
2022-12-06T14:06:14.920Z,7.07
2022-12-06T14:08:54.098Z,6.32
2022-12-06T14:11:25.673Z,7.24
2022-12-06T14:13:56.102Z,7.42
2022-12-06T14:16:39.821Z,7.03
2022-12-06T14:19:16.616Z,7.51
2022-12-06T14:21:55.766Z,7.34
2022-12-06T14:24:37.921Z,6.95
2022-12-06T14:27:15.381Z,6.10
2022-12-06T14:29:44.538Z,6.06
2022-12-06T14:32:11.904Z,6.68
2022-12-06T14:34:39.486Z,6.90
2022-12-06T14:37:21.236Z,7.02
2022-12-06T14:39:53.291Z,6.83
2022-12-06T14:42:39.562Z,6.88
2022-12-06T14:45:13.679Z,6.88
2022-12-06T14:47:43.332Z,6.72
2022-12-06T14:50:26.074Z,7.18
2022-12-06T14:53:01.447Z,7.14
2022-12-06T14:55:32.032Z,6.98
2022-12-06T14:58:22.834Z,7.01
2022-12-06T15:00:56.085Z,6.95
2022-12-06T15:03:28.615Z,7.21
2022-12-06T15:06:16.241Z,6.97
2022-12-06T15:08:43.837Z,7.13
2022-12-06T15:11:11.211Z,6.75
2022-12-06T15:13:39.471Z,7.46
2022-12-06T15:16:10.123Z,7.09
2022-12-06T15:18:42.831Z,6.40
2022-12-06T15:21:16.817Z,6.61
2022-12-06T15:23:50.938Z,6.67
2022-12-06T15:26:20.053Z,6.76
2022-12-06T15:28:48.064Z,6.56
2022-12-06T15:31:18.888Z,6.69
2022-12-06T15:33:46.999Z,6.08
2022-12-06T15:36:19.768Z,6.15
2022-12-06T15:38:47.615Z,5.84
2022-12-06T15:41:17.794Z,6.21
2022-12-06T15:43:46.097Z,6.14
2022-12-06T15:46:20.811Z,6.22
2022-12-06T15:48:48.509Z,5.76
2022-12-06T15:51:20.764Z,6.26
2022-12-06T15:53:50.341Z,5.96
2022-12-06T15:56:21.139Z,6.46
2022-12-06T15:58:49.068Z,6.47
2022-12-06T16:01:23.706Z,6.06
2022-12-06T16:03:55.380Z,5.28
2022-12-06T16:06:24.724Z,5.58
2022-12-06T16:08:52.762Z,5.60
2022-12-06T16:11:22.905Z,5.93
2022-12-06T16:13:50.925Z,5.85
2022-12-06T16:16:20.355Z,5.88
2022-12-06T16:18:48.850Z,5.38
2022-12-06T16:21:31.103Z,6.07
2022-12-06T16:24:18.196Z,5.45
2022-12-06T16:26:46.512Z,5.32
2022-12-06T16:29:25.145Z,5.48
2022-12-06T16:31:54.102Z,5.45
2022-12-06T16:34:21.919Z,5.28
2022-12-06T16:37:01.554Z,4.76
2022-12-06T16:39:31.396Z,5.48
2022-12-06T16:41:59.113Z,5.39
2022-12-06T16:44:27.037Z,5.58
2022-12-06T16:46:54.948Z,5.78
2022-12-06T16:49:45.815Z,5.50
2022-12-06T16:52:15.954Z,5.48
2022-12-06T16:54:44.152Z,5.84
2022-12-06T16:57:13.876Z,5.33
2022-12-06T16:59:42.702Z,5.43
2022-12-06T17:02:28.670Z,5.52
2022-12-06T17:04:58.104Z,5.25
2022-12-06T17:07:26.111Z,5.14
2022-12-06T17:09:56.037Z,5.08
2022-12-06T17:12:24.548Z,5.12
2022-12-06T17:14:52.959Z,5.37
2022-12-06T17:17:22.199Z,5.29
2022-12-06T17:19:51.584Z,5.32
2022-12-06T17:22:20.749Z,5.39
2022-12-06T17:24:49.676Z,5.44
2022-12-06T17:27:18.403Z,5.42
2022-12-06T17:29:46.632Z,5.24
2022-12-06T17:32:14.855Z,5.86
2022-12-06T17:34:43.485Z,5.76
2022-12-06T17:37:11.765Z,5.63
2022-12-06T17:39:40.322Z,5.57
2022-12-06T17:42:30.549Z,5.55
2022-12-06T17:44:59.416Z,5.38
2022-12-06T17:47:28.356Z,5.31
2022-12-06T17:49:56.872Z,5.18
2022-12-06T17:52:25.170Z,4.76
2022-12-06T17:54:53.183Z,4.82
2022-12-06T17:57:21.727Z,4.85
2022-12-06T17:59:49.657Z,4.89
2022-12-06T18:02:26.312Z,4.57
2022-12-06T18:04:56.949Z,4.72
2022-12-06T18:07:26.172Z,4.81
2022-12-06T18:09:54.115Z,5.06
2022-12-06T18:12:21.793Z,5.07
2022-12-06T18:14:51.279Z,4.96
2022-12-06T18:17:20.675Z,5.32
2022-12-06T18:19:49.467Z,4.79
2022-12-06T18:22:19.783Z,4.94
2022-12-06T18:24:51.435Z,4.63
2022-12-06T18:27:19.431Z,5.09
2022-12-06T18:29:48.975Z,4.70
2022-12-06T18:32:17.107Z,4.70
2022-12-06T18:34:45.382Z,5.00
2022-12-06T18:37:14.195Z,5.01
2022-12-06T18:39:42.336Z,4.69
2022-12-06T18:42:10.864Z,4.36
2022-12-06T18:44:39.647Z,4.82
2022-12-06T18:47:09.760Z,4.75
2022-12-06T18:49:38.083Z,4.44
2022-12-06T18:52:08.231Z,4.81
2022-12-06T18:54:36.597Z,4.96
2022-12-06T18:57:04.696Z,4.99
2022-12-06T18:59:44.370Z,4.28
2022-12-06T19:02:14.269Z,4.37
2022-12-06T19:04:43.733Z,4.96
2022-12-06T19:07:21.928Z,4.85
2022-12-06T19:09:55.954Z,4.81
2022-12-06T19:12:25.232Z,4.96
2022-12-06T19:14:54.320Z,4.79
2022-12-06T19:17:23.302Z,4.80
2022-12-06T19:19:52.080Z,4.35
2022-12-06T19:22:21.624Z,4.38
2022-12-06T19:24:51.874Z,4.54
2022-12-06T19:27:21.263Z,4.43
2022-12-06T19:29:51.842Z,4.45
2022-12-06T19:32:21.944Z,3.89
2022-12-06T19:34:50.962Z,3.99
2022-12-06T19:37:19.553Z,3.81
2022-12-06T19:39:48.993Z,3.39
2022-12-06T19:42:37.250Z,3.08
2022-12-06T19:45:11.277Z,3.16
2022-12-06T19:47:39.887Z,2.50
2022-12-06T19:50:09.453Z,2.63
2022-12-06T19:52:42.462Z,3.57
2022-12-06T19:55:12.278Z,3.43
2022-12-06T19:57:41.889Z,3.53
2022-12-06T20:00:11.922Z,3.76
2022-12-06T20:02:40.597Z,3.98
2022-12-06T20:05:09.829Z,4.21
2022-12-06T20:07:38.757Z,3.53
2022-12-06T20:10:08.555Z,3.66
2022-12-06T20:12:37.687Z,4.09
2022-12-06T20:15:08.277Z,4.03
2022-12-06T20:17:37.533Z,3.33
2022-12-06T20:20:07.023Z,3.33
2022-12-06T20:22:35.251Z,2.57
2022-12-06T20:25:05.867Z,3.08
2022-12-06T20:27:52.586Z,2.93
2022-12-06T20:30:23.551Z,2.83
2022-12-06T20:32:52.167Z,2.95
2022-12-06T20:35:22.885Z,2.74
2022-12-06T20:37:53.567Z,2.87
2022-12-06T20:40:29.811Z,3.02
2022-12-06T20:43:00.107Z,3.05
2022-12-06T20:45:30.338Z,2.69
2022-12-06T20:47:59.758Z,2.69
2022-12-06T20:50:28.132Z,2.76
2022-12-06T20:52:59.811Z,2.90
2022-12-06T20:55:28.911Z,3.49
2022-12-06T20:57:58.374Z,3.48
2022-12-06T21:00:27.382Z,3.51
2022-12-06T21:02:56.192Z,3.69
2022-12-06T21:05:24.987Z,3.62
2022-12-06T21:07:54.552Z,3.43
2022-12-06T21:10:22.628Z,3.38
2022-12-06T21:12:50.824Z,2.87
2022-12-06T21:15:18.492Z,3.37
2022-12-06T21:17:46.214Z,3.45
2022-12-06T21:20:13.885Z,2.78
2022-12-06T21:22:41.763Z,3.03
2022-12-06T21:25:10.029Z,3.45
2022-12-06T21:27:38.037Z,2.98
2022-12-06T21:30:05.967Z,2.88
2022-12-06T21:32:34.193Z,2.86
2022-12-06T21:35:02.077Z,3.01
2022-12-06T21:37:29.440Z,3.45
2022-12-06T21:39:56.793Z,3.50
2022-12-06T21:42:24.694Z,4.09
2022-12-06T21:44:52.038Z,3.30
2022-12-06T21:47:19.412Z,3.32
2022-12-06T21:49:47.223Z,3.42
2022-12-06T21:52:14.566Z,3.64
2022-12-06T21:54:41.926Z,3.74
2022-12-06T21:57:09.651Z,3.14
2022-12-06T21:59:36.988Z,3.71
2022-12-06T22:02:04.447Z,3.79
2022-12-06T22:04:32.154Z,3.82
2022-12-06T22:06:59.790Z,3.23
2022-12-06T22:09:27.130Z,2.82
2022-12-06T22:11:55.136Z,3.20
2022-12-06T22:14:22.759Z,2.66
2022-12-06T22:16:51.019Z,2.59
2022-12-06T22:19:18.741Z,3.12
2022-12-06T22:21:47.692Z,2.76
2022-12-06T22:24:15.136Z,2.81
2022-12-06T22:26:42.783Z,2.90
2022-12-06T22:29:10.454Z,2.66
2022-12-06T22:31:37.952Z,2.83
2022-12-06T22:34:05.703Z,3.18
2022-12-06T22:36:34.011Z,3.44
2022-12-06T22:39:03.583Z,3.12
2022-12-06T22:41:31.547Z,3.02
2022-12-06T22:44:01.204Z,3.67
2022-12-06T22:46:30.011Z,3.27
2022-12-06T22:48:58.808Z,3.21
2022-12-06T22:51:34.590Z,3.35
2022-12-06T22:54:08.944Z,3.42
2022-12-06T22:56:36.329Z,3.26
2022-12-06T22:59:06.295Z,3.10
2022-12-06T23:01:35.103Z,3.79
2022-12-06T23:04:05.094Z,3.82
2022-12-06T23:06:34.554Z,4.03
2022-12-06T23:09:02.024Z,3.57
2022-12-06T23:11:31.798Z,4.24
2022-12-06T23:13:59.661Z,3.58
2022-12-06T23:16:28.629Z,4.38
2022-12-06T23:18:56.670Z,3.85
2022-12-06T23:21:27.204Z,4.18
2022-12-06T23:23:59.430Z,3.89
2022-12-06T23:26:33.150Z,4.28
2022-12-06T23:29:01.340Z,3.86
2022-12-06T23:31:33.840Z,3.83
2022-12-06T23:34:04.991Z,3.85
2022-12-06T23:36:33.862Z,4.12
2022-12-06T23:39:01.444Z,3.69
2022-12-06T23:41:30.347Z,3.86
2022-12-06T23:43:58.292Z,3.81
2022-12-06T23:46:35.491Z,3.95
2022-12-06T23:49:04.717Z,3.90
2022-12-06T23:51:34.950Z,3.95
2022-12-06T23:54:04.746Z,3.59
2022-12-06T23:56:34.697Z,3.25
2022-12-06T23:59:03.159Z,3.65
